createdAt,value
2022-12-20T00:02:16.861Z,20.53
2022-12-20T00:04:45.115Z,19.10
2022-12-20T00:07:13.193Z,19.50
2022-12-20T00:09:41.408Z,19.33
2022-12-20T00:12:09.847Z,19.13
2022-12-20T00:14:39.523Z,19.60
2022-12-20T00:17:07.790Z,19.70
2022-12-20T00:19:36.022Z,19.30
2022-12-20T00:22:04.176Z,19.80
2022-12-20T00:24:33.117Z,18.57
2022-12-20T00:27:01.569Z,19.40
2022-12-20T00:29:29.827Z,19.43
2022-12-20T00:31:59.614Z,19.17
2022-12-20T00:34:27.787Z,18.80
2022-12-20T00:36:55.965Z,17.80
2022-12-20T00:39:24.264Z,18.93
2022-12-20T00:41:52.370Z,19.70
2022-12-20T00:44:20.524Z,19.03
2022-12-20T00:46:48.722Z,20.13
2022-12-20T00:49:18.263Z,19.03
2022-12-20T00:51:46.360Z,19.20
2022-12-20T00:54:14.435Z,19.77
2022-12-20T00:56:42.791Z,19.50
2022-12-20T00:59:10.905Z,19.07
2022-12-20T01:01:39.222Z,19.10
2022-12-20T01:04:07.993Z,18.47
2022-12-20T01:06:38.216Z,17.37
2022-12-20T01:09:06.416Z,18.17
2022-12-20T01:11:35.655Z,19.10
2022-12-20T01:14:05.048Z,19.83
2022-12-20T01:16:34.421Z,19.47
2022-12-20T01:19:02.878Z,20.07
2022-12-20T01:21:31.311Z,20.20
2022-12-20T01:24:00.786Z,20.50
2022-12-20T01:26:29.691Z,20.53
2022-12-20T01:28:58.741Z,20.87
2022-12-20T01:31:27.243Z,21.30
2022-12-20T01:33:55.353Z,21.70
2022-12-20T01:36:25.963Z,21.13
2022-12-20T01:38:58.083Z,20.77
2022-12-20T01:41:27.859Z,20.90
2022-12-20T01:43:57.007Z,21.63
2022-12-20T01:46:26.057Z,22.10
2022-12-20T01:48:55.350Z,22.17
2022-12-20T01:51:23.892Z,22.33
2022-12-20T01:53:53.610Z,22.93
2022-12-20T01:56:21.766Z,19.47
2022-12-20T01:58:51.345Z,21.43
2022-12-20T02:01:19.591Z,20.57
2022-12-20T02:03:47.848Z,20.33
2022-12-20T02:06:18.183Z,19.83
2022-12-20T02:08:47.132Z,19.97
2022-12-20T02:11:23.309Z,20.70
2022-12-20T02:13:55.781Z,20.20
2022-12-20T02:16:25.903Z,19.13
2022-12-20T02:18:56.284Z,20.40
2022-12-20T02:21:28.465Z,20.37
2022-12-20T02:24:25.964Z,20.87
2022-12-20T02:27:33.041Z,22.20
2022-12-20T02:30:09.050Z,20.83
2022-12-20T02:32:40.031Z,20.33
2022-12-20T02:35:09.305Z,21.17
2022-12-20T02:37:37.696Z,21.27
2022-12-20T02:40:06.638Z,20.03
2022-12-20T02:42:34.863Z,21.00
2022-12-20T02:45:16.079Z,20.93
2022-12-20T02:47:49.451Z,19.40
2022-12-20T02:50:20.114Z,21.17
2022-12-20T02:52:48.291Z,20.80
2022-12-20T02:55:16.404Z,21.23
2022-12-20T02:57:46.851Z,20.30
2022-12-20T03:00:16.011Z,19.87
2022-12-20T03:03:03.438Z,20.53
2022-12-20T03:05:31.798Z,21.23
2022-12-20T03:08:00.066Z,20.83
2022-12-20T03:10:28.314Z,20.23
2022-12-20T03:12:56.438Z,18.73
2022-12-20T03:15:24.701Z,20.37
2022-12-20T03:17:54.415Z,20.50
2022-12-20T03:20:22.608Z,19.23
2022-12-20T03:22:50.819Z,18.83
2022-12-20T03:25:19.637Z,18.63
2022-12-20T03:27:47.756Z,18.00
2022-12-20T03:30:16.561Z,19.17
2022-12-20T03:32:44.664Z,20.37
2022-12-20T03:35:14.108Z,19.83
2022-12-20T03:37:42.651Z,18.87
2022-12-20T03:40:11.772Z,20.03
2022-12-20T03:42:39.928Z,20.07
2022-12-20T03:45:09.193Z,18.97
2022-12-20T03:47:37.406Z,20.20
2022-12-20T03:50:06.387Z,19.00
2022-12-20T03:52:36.132Z,20.10
2022-12-20T03:55:04.800Z,19.43
2022-12-20T03:57:33.186Z,18.17
2022-12-20T04:00:01.288Z,19.93
2022-12-20T04:02:29.580Z,20.07
2022-12-20T04:04:57.780Z,19.10
2022-12-20T04:07:25.959Z,19.67
2022-12-20T04:09:55.475Z,18.07
2022-12-20T04:12:23.749Z,19.90
2022-12-20T04:14:51.859Z,18.77
2022-12-20T04:17:20.199Z,18.77
2022-12-20T04:19:48.287Z,18.17
2022-12-20T04:22:16.463Z,18.77
2022-12-20T04:24:44.510Z,18.63
2022-12-20T04:27:14.184Z,18.03
2022-12-20T04:29:42.287Z,19.37
2022-12-20T04:32:10.534Z,18.63
2022-12-20T04:34:38.793Z,18.50
2022-12-20T04:37:07.130Z,18.83
2022-12-20T04:39:35.247Z,18.80
2022-12-20T04:42:03.623Z,19.80
2022-12-20T04:44:33.309Z,19.20
2022-12-20T04:47:01.571Z,19.37
2022-12-20T04:49:29.636Z,18.70
2022-12-20T04:52:18.746Z,19.90
2022-12-20T04:54:46.563Z,21.13
2022-12-20T04:57:14.780Z,19.63
2022-12-20T04:59:44.236Z,20.53
2022-12-20T05:02:12.536Z,21.60
2022-12-20T05:04:40.989Z,21.50
2022-12-20T05:07:09.096Z,22.20
2022-12-20T05:09:37.173Z,22.70
2022-12-20T05:12:05.599Z,22.40
2022-12-20T05:14:33.733Z,23.30
2022-12-20T05:17:03.441Z,23.50
2022-12-20T05:19:31.575Z,23.33
2022-12-20T05:22:17.284Z,23.63
2022-12-20T05:25:02.900Z,24.30
2022-12-20T05:27:31.151Z,24.27
2022-12-20T05:29:59.466Z,24.27
2022-12-20T05:32:29.131Z,24.23
2022-12-20T05:34:57.200Z,22.23
2022-12-20T05:37:25.302Z,22.87
2022-12-20T05:39:53.419Z,22.43
2022-12-20T05:42:22.030Z,22.20
2022-12-20T05:44:50.135Z,23.23
2022-12-20T05:47:18.407Z,24.07
2022-12-20T05:49:48.048Z,22.07
2022-12-20T05:52:16.191Z,20.83
2022-12-20T05:54:44.324Z,21.90
2022-12-20T05:57:12.573Z,20.23
2022-12-20T05:59:40.978Z,20.17
2022-12-20T06:02:10.845Z,20.90
2022-12-20T06:04:39.432Z,21.30
2022-12-20T06:07:09.012Z,20.80
2022-12-20T06:09:37.074Z,21.60
2022-12-20T06:12:06.243Z,22.77
2022-12-20T06:14:34.431Z,21.63
2022-12-20T06:17:02.653Z,22.60
2022-12-20T06:19:30.738Z,20.60
2022-12-20T06:21:58.884Z,21.27
2022-12-20T06:24:28.533Z,22.03
2022-12-20T06:26:56.972Z,22.67
2022-12-20T06:29:25.056Z,23.33
2022-12-20T06:31:53.306Z,21.93
2022-12-20T06:34:21.629Z,22.73
2022-12-20T06:36:49.839Z,21.70
2022-12-20T06:39:18.029Z,21.20
2022-12-20T06:41:47.764Z,22.07
2022-12-20T06:44:15.827Z,21.47
2022-12-20T06:46:44.075Z,22.37
2022-12-20T06:49:12.477Z,23.27
2022-12-20T06:51:40.702Z,21.30
2022-12-20T06:54:09.051Z,22.53
2022-12-20T06:56:41.214Z,23.20
2022-12-20T06:59:11.449Z,21.63
2022-12-20T07:01:40.048Z,23.20
2022-12-20T07:04:08.201Z,24.40
2022-12-20T07:06:36.932Z,31.30
2022-12-20T07:09:05.337Z,31.17
2022-12-20T07:11:33.512Z,24.47
2022-12-20T07:14:01.598Z,25.47
2022-12-20T07:16:32.326Z,24.57
2022-12-20T07:19:00.707Z,24.87
2022-12-20T07:21:29.247Z,23.97
2022-12-20T07:23:57.446Z,24.70
2022-12-20T07:26:25.792Z,24.43
2022-12-20T07:28:54.232Z,26.70
2022-12-20T07:31:22.461Z,25.00
2022-12-20T07:33:52.074Z,25.57
2022-12-20T07:36:20.446Z,23.77
2022-12-20T07:38:49.103Z,25.03
2022-12-20T07:41:17.915Z,25.83
2022-12-20T07:43:46.000Z,23.40
2022-12-20T07:46:15.140Z,25.73
2022-12-20T07:48:44.669Z,24.67
2022-12-20T07:51:16.192Z,24.70
2022-12-20T07:53:46.031Z,23.57
2022-12-20T07:56:14.321Z,23.73
2022-12-20T07:58:42.454Z,23.57
2022-12-20T08:01:11.411Z,25.73
2022-12-20T08:03:40.812Z,25.57
2022-12-20T08:06:09.248Z,26.10
2022-12-20T08:08:40.038Z,24.40
2022-12-20T08:11:08.486Z,25.23
2022-12-20T08:13:40.922Z,25.70
2022-12-20T08:16:14.178Z,26.93
2022-12-20T08:18:42.347Z,27.33
2022-12-20T08:21:13.030Z,24.57
2022-12-20T08:23:42.596Z,29.23
2022-12-20T08:26:10.663Z,27.87
2022-12-20T08:28:39.104Z,26.93
2022-12-20T08:31:08.566Z,27.27
2022-12-20T08:33:36.949Z,26.77
2022-12-20T08:36:07.438Z,26.07
2022-12-20T08:38:35.632Z,26.93
2022-12-20T08:41:05.922Z,24.13
2022-12-20T08:43:34.062Z,24.37
2022-12-20T08:46:02.296Z,24.10
2022-12-20T08:48:30.422Z,24.47
2022-12-20T08:50:58.832Z,26.37
2022-12-20T08:53:26.912Z,24.03
2022-12-20T08:55:55.100Z,26.73
2022-12-20T08:58:24.567Z,25.83
2022-12-20T09:00:53.152Z,27.07
2022-12-20T09:03:21.355Z,24.07
2022-12-20T09:05:49.708Z,24.27
2022-12-20T09:08:17.993Z,25.00
2022-12-20T09:10:46.095Z,26.03
2022-12-20T09:13:14.195Z,26.63
2022-12-20T09:15:45.286Z,24.47
2022-12-20T09:18:13.419Z,24.57
2022-12-20T09:20:45.561Z,25.67
2022-12-20T09:23:13.605Z,25.17
2022-12-20T09:25:41.805Z,24.83
2022-12-20T09:28:09.912Z,22.40
2022-12-20T09:30:38.147Z,28.20
2022-12-20T09:33:10.189Z,22.93
2022-12-20T09:35:41.801Z,22.17
2022-12-20T09:38:09.992Z,21.13
2022-12-20T09:40:38.882Z,22.03
2022-12-20T09:43:07.056Z,21.70
2022-12-20T09:45:36.877Z,21.70
2022-12-20T09:48:05.855Z,22.80
2022-12-20T09:50:47.382Z,21.97
2022-12-20T09:53:20.155Z,21.07
2022-12-20T09:55:50.743Z,21.47
2022-12-20T09:58:39.013Z,20.93
2022-12-20T10:01:15.441Z,20.43
2022-12-20T10:03:46.035Z,20.13
2022-12-20T10:06:20.364Z,19.63
2022-12-20T10:08:52.428Z,20.83
2022-12-20T10:11:41.942Z,20.77
2022-12-20T10:14:19.402Z,21.17
2022-12-20T10:16:48.221Z,20.27
2022-12-20T10:19:27.421Z,18.60
2022-12-20T10:21:59.412Z,19.50
2022-12-20T10:24:30.483Z,18.17
2022-12-20T10:26:59.813Z,19.33
2022-12-20T10:29:27.862Z,19.33
2022-12-20T10:31:56.324Z,20.17
2022-12-20T10:34:24.855Z,19.73
2022-12-20T10:36:54.022Z,19.43
2022-12-20T10:39:23.498Z,20.83
2022-12-20T10:41:52.286Z,22.97
2022-12-20T10:44:21.729Z,20.43
2022-12-20T10:46:50.818Z,21.90
2022-12-20T10:49:23.809Z,22.93
2022-12-20T10:51:54.860Z,22.27
2022-12-20T10:54:25.523Z,22.37
2022-12-20T10:56:56.565Z,22.47
2022-12-20T10:59:31.300Z,23.60
2022-12-20T11:01:59.524Z,22.27
2022-12-20T11:04:29.320Z,20.97
2022-12-20T11:06:57.563Z,21.33
2022-12-20T11:09:32.291Z,20.40
2022-12-20T11:12:02.021Z,19.97
2022-12-20T11:14:36.473Z,21.07
2022-12-20T11:17:14.750Z,20.57
2022-12-20T11:20:00.187Z,20.83
2022-12-20T11:22:35.918Z,20.13
2022-12-20T11:25:14.213Z,21.03
2022-12-20T11:27:45.976Z,20.33
2022-12-20T11:30:16.255Z,20.83
2022-12-20T11:33:20.058Z,20.20
2022-12-20T11:35:52.179Z,19.67
2022-12-20T11:38:27.816Z,18.37
2022-12-20T11:41:07.301Z,18.07
2022-12-20T11:44:22.749Z,18.50
2022-12-20T11:46:47.767Z,19.00
2022-12-20T11:49:37.493Z,18.03
2022-12-20T11:52:07.593Z,17.67
2022-12-20T11:54:38.372Z,18.27
2022-12-20T11:57:13.590Z,19.90
2022-12-20T11:59:44.049Z,18.37
2022-12-20T12:02:13.247Z,19.23
2022-12-20T12:04:44.234Z,19.53
2022-12-20T12:07:15.135Z,19.97
2022-12-20T12:09:46.545Z,20.67
2022-12-20T12:12:24.206Z,18.83
2022-12-20T12:14:55.219Z,20.43
2022-12-20T12:17:27.717Z,19.97
2022-12-20T12:19:57.624Z,20.13
2022-12-20T12:22:28.474Z,19.10
2022-12-20T12:24:58.794Z,19.73
2022-12-20T12:27:28.927Z,21.13
2022-12-20T12:29:57.537Z,21.30
2022-12-20T12:32:30.800Z,22.47
2022-12-20T12:35:20.249Z,23.87
2022-12-20T12:37:56.692Z,20.37
2022-12-20T12:40:52.764Z,21.20
2022-12-20T12:43:43.139Z,22.30
2022-12-20T12:46:14.504Z,21.27
2022-12-20T12:48:44.699Z,21.83
2022-12-20T12:51:12.997Z,22.03
2022-12-20T12:53:44.098Z,21.73
2022-12-20T12:56:47.239Z,21.90
2022-12-20T12:59:48.482Z,21.33
2022-12-20T13:02:35.528Z,22.50
2022-12-20T13:05:31.704Z,22.27
2022-12-20T13:08:00.839Z,21.77
2022-12-20T13:11:03.192Z,22.60
2022-12-20T13:13:31.478Z,22.47
2022-12-20T13:16:14.346Z,21.27
2022-12-20T13:19:13.365Z,22.23
2022-12-20T13:21:43.550Z,23.17
2022-12-20T13:24:41.285Z,22.80
2022-12-20T13:27:36.873Z,23.57
2022-12-20T13:30:29.078Z,23.27
2022-12-20T13:33:23.405Z,23.50
2022-12-20T13:36:31.797Z,23.57
2022-12-20T13:39:01.260Z,24.30
2022-12-20T13:41:36.572Z,22.73
2022-12-20T13:44:11.528Z,23.73
2022-12-20T13:46:42.606Z,24.10
2022-12-20T13:49:12.859Z,24.07
2022-12-20T13:51:41.163Z,23.13
2022-12-20T13:54:10.088Z,22.50
2022-12-20T13:56:42.422Z,22.33
2022-12-20T13:59:15.603Z,23.53
2022-12-20T14:01:49.252Z,22.97
2022-12-20T14:04:19.220Z,24.13
2022-12-20T14:06:52.172Z,24.13
2022-12-20T14:09:31.344Z,26.07
2022-12-20T14:12:04.800Z,23.33
2022-12-20T14:14:32.980Z,24.17
2022-12-20T14:17:17.080Z,25.67
2022-12-20T14:19:46.700Z,22.37
2022-12-20T14:22:15.696Z,23.60
2022-12-20T14:24:44.245Z,22.80
2022-12-20T14:27:12.820Z,23.07
2022-12-20T14:29:40.937Z,22.93
2022-12-20T14:32:19.389Z,22.13
2022-12-20T14:34:48.972Z,22.67
2022-12-20T14:37:28.296Z,23.70
2022-12-20T14:39:57.222Z,22.93
2022-12-20T14:42:25.635Z,22.60
2022-12-20T14:45:03.042Z,23.47
2022-12-20T14:47:31.237Z,21.30
2022-12-20T14:50:01.308Z,22.00
2022-12-20T14:52:31.479Z,22.47
2022-12-20T14:55:09.311Z,21.77
2022-12-20T14:57:44.637Z,23.70
2022-12-20T15:00:16.378Z,23.47
2022-12-20T15:02:47.534Z,23.27
2022-12-20T15:05:48.830Z,22.17
2022-12-20T15:08:19.444Z,23.33
2022-12-20T15:10:53.290Z,24.17
2022-12-20T15:13:22.226Z,24.77
2022-12-20T15:15:50.459Z,23.90
2022-12-20T15:18:19.444Z,25.20
2022-12-20T15:20:50.402Z,25.10
2022-12-20T15:23:18.770Z,25.97
2022-12-20T15:25:47.099Z,26.37
2022-12-20T15:28:16.683Z,26.07
2022-12-20T15:30:46.235Z,27.63
2022-12-20T15:33:18.773Z,28.90
2022-12-20T15:35:48.300Z,26.73
2022-12-20T15:38:17.796Z,26.87
2022-12-20T15:40:47.209Z,28.00
2022-12-20T15:43:16.278Z,27.20
2022-12-20T15:45:45.486Z,27.17
2022-12-20T15:48:15.601Z,28.23
2022-12-20T15:50:44.921Z,25.33
2022-12-20T15:53:16.396Z,25.83
2022-12-20T15:55:44.731Z,26.23
2022-12-20T15:58:12.906Z,25.20
2022-12-20T16:00:42.345Z,26.10
2022-12-20T16:03:18.468Z,26.67
2022-12-20T16:05:46.779Z,27.13
2022-12-20T16:08:16.408Z,25.60
2022-12-20T16:10:44.695Z,26.87
2022-12-20T16:13:20.920Z,25.93
2022-12-20T16:15:50.306Z,25.83
2022-12-20T16:18:18.529Z,27.50
2022-12-20T16:20:46.747Z,27.70
2022-12-20T16:23:18.859Z,28.87
2022-12-20T16:25:47.279Z,26.50
2022-12-20T16:28:15.415Z,26.83
2022-12-20T16:30:46.497Z,28.33
2022-12-20T16:33:22.432Z,28.23
2022-12-20T16:35:50.532Z,29.13
2022-12-20T16:38:20.070Z,29.13
2022-12-20T16:40:49.293Z,28.40
2022-12-20T16:43:18.473Z,28.83
2022-12-20T16:45:46.615Z,26.27
2022-12-20T16:48:14.720Z,28.57
2022-12-20T16:50:43.546Z,28.60
2022-12-20T16:53:15.532Z,29.17
2022-12-20T16:55:45.611Z,29.47
2022-12-20T16:58:13.741Z,28.73
2022-12-20T17:00:41.972Z,29.87
2022-12-20T17:03:10.180Z,27.90
2022-12-20T17:05:40.104Z,28.93
2022-12-20T17:10:55.498Z,30.20
2022-12-20T17:13:23.680Z,29.70
2022-12-20T17:15:51.975Z,28.30
2022-12-20T17:18:20.116Z,30.43
2022-12-20T17:20:48.265Z,29.57
2022-12-20T17:23:16.796Z,30.27
2022-12-20T17:25:50.262Z,29.27
2022-12-20T17:28:23.534Z,28.67
2022-12-20T17:30:51.687Z,29.93
2022-12-20T17:33:19.793Z,32.67
2022-12-20T17:35:48.113Z,31.43
2022-12-20T17:38:16.454Z,29.30
2022-12-20T17:40:44.562Z,29.50
2022-12-20T17:43:14.098Z,28.40
2022-12-20T17:45:43.894Z,29.03
2022-12-20T17:48:12.255Z,30.57
2022-12-20T17:50:40.497Z,30.53
2022-12-20T17:53:10.101Z,30.60
2022-12-20T17:55:38.346Z,30.33
2022-12-20T17:58:06.438Z,30.40
2022-12-20T18:00:39.430Z,29.97
2022-12-20T18:03:19.896Z,28.60
2022-12-20T18:06:02.448Z,28.60
2022-12-20T18:08:34.006Z,27.93
2022-12-20T18:11:02.141Z,28.40
2022-12-20T18:13:30.986Z,30.90
2022-12-20T18:15:59.117Z,29.77
2022-12-20T18:18:33.594Z,31.23
2022-12-20T18:21:05.085Z,32.80
2022-12-20T18:23:33.700Z,35.80
2022-12-20T18:26:07.723Z,34.23
2022-12-20T18:28:35.798Z,34.23
2022-12-20T18:31:04.089Z,33.10
2022-12-20T18:33:34.116Z,34.80
2022-12-20T18:36:03.114Z,32.80
2022-12-20T18:38:31.211Z,32.43
2022-12-20T18:41:00.751Z,31.80
2022-12-20T18:43:29.160Z,32.50
2022-12-20T18:45:57.478Z,34.87
2022-12-20T18:48:25.791Z,34.10
2022-12-20T18:50:55.298Z,35.50
2022-12-20T18:53:23.437Z,34.87
2022-12-20T18:55:51.949Z,35.20
2022-12-20T18:58:20.035Z,34.53
2022-12-20T19:00:48.324Z,32.43
2022-12-20T19:03:17.063Z,33.57
2022-12-20T19:05:45.330Z,33.07
2022-12-20T19:08:14.796Z,32.43
2022-12-20T19:10:43.038Z,31.43
2022-12-20T19:13:11.196Z,33.43
2022-12-20T19:15:39.364Z,33.73
2022-12-20T19:18:07.784Z,32.90
2022-12-20T19:20:36.723Z,31.97
2022-12-20T19:23:05.196Z,33.63
2022-12-20T19:25:35.740Z,30.50
2022-12-20T19:28:03.801Z,30.80
2022-12-20T19:30:32.050Z,31.47
2022-12-20T19:33:00.227Z,30.27
2022-12-20T19:35:54.821Z,32.77
2022-12-20T19:38:16.450Z,30.93
2022-12-20T19:40:52.056Z,31.77
2022-12-20T19:43:20.329Z,31.17
2022-12-20T19:45:48.530Z,30.27
2022-12-20T19:48:16.606Z,30.53
2022-12-20T19:50:44.681Z,31.60
2022-12-20T19:53:12.710Z,29.77
2022-12-20T19:55:40.855Z,31.60
2022-12-20T19:58:10.310Z,32.40
2022-12-20T20:00:38.467Z,30.53
2022-12-20T20:03:06.674Z,30.90
2022-12-20T20:05:36.059Z,30.07
2022-12-20T20:08:04.678Z,29.33
2022-12-20T20:10:32.936Z,30.80
2022-12-20T20:13:01.107Z,30.17
2022-12-20T20:15:30.781Z,29.30
2022-12-20T20:17:59.204Z,29.67
2022-12-20T20:20:27.299Z,30.83
2022-12-20T20:22:55.422Z,29.00
2022-12-20T20:25:23.682Z,29.07
2022-12-20T20:27:51.856Z,28.50
2022-12-20T20:30:20.084Z,29.10
2022-12-20T20:32:49.701Z,29.00
2022-12-20T20:35:18.188Z,28.93
2022-12-20T20:37:46.425Z,29.13
2022-12-20T20:40:15.624Z,28.90
2022-12-20T20:42:43.722Z,28.60
2022-12-20T20:45:12.577Z,29.23
2022-12-20T20:47:40.741Z,31.17
2022-12-20T20:50:11.728Z,29.73
2022-12-20T20:52:40.011Z,30.17
2022-12-20T20:55:09.586Z,30.40
2022-12-20T20:57:37.768Z,29.60
2022-12-20T21:00:06.692Z,30.37
2022-12-20T21:02:35.077Z,30.87
2022-12-20T21:07:53.131Z,29.73
2022-12-20T21:10:21.510Z,27.77
2022-12-20T21:12:49.765Z,29.03
2022-12-20T21:15:23.233Z,30.17
2022-12-20T21:17:52.354Z,29.60
2022-12-20T21:20:25.707Z,29.43
2022-12-20T21:22:57.346Z,31.10
2022-12-20T21:25:25.535Z,32.37
2022-12-20T21:27:53.900Z,31.63
2022-12-20T21:30:22.018Z,31.20
2022-12-20T21:32:50.263Z,32.63
2022-12-20T21:35:18.461Z,30.27
2022-12-20T21:37:46.589Z,31.33
2022-12-20T21:40:16.289Z,32.83
2022-12-20T21:42:45.552Z,35.37
2022-12-20T21:45:13.677Z,33.33
2022-12-20T21:47:41.832Z,28.87
2022-12-20T21:50:10.586Z,27.87
2022-12-20T21:52:40.698Z,29.23
2022-12-20T21:55:09.587Z,28.37
2022-12-20T21:57:39.050Z,28.10
2022-12-20T22:00:08.818Z,29.17
2022-12-20T22:02:37.053Z,27.23
2022-12-20T22:05:06.105Z,27.80
2022-12-20T22:07:34.245Z,29.47
2022-12-20T22:10:02.291Z,32.40
2022-12-20T22:12:30.719Z,32.43
2022-12-20T22:15:00.199Z,30.63
2022-12-20T22:17:28.666Z,30.97
2022-12-20T22:19:57.892Z,28.90
2022-12-20T22:22:26.365Z,27.63
2022-12-20T22:24:54.814Z,25.70
2022-12-20T22:27:22.965Z,25.20
2022-12-20T22:29:51.481Z,27.67
2022-12-20T22:32:20.952Z,26.90
2022-12-20T22:34:49.227Z,26.43
2022-12-20T22:37:17.377Z,25.83
2022-12-20T22:39:45.441Z,26.60
2022-12-20T22:42:13.576Z,25.93
2022-12-20T22:44:41.647Z,26.00
2022-12-20T22:47:09.702Z,27.83
2022-12-20T22:49:39.151Z,27.50
2022-12-20T22:52:08.044Z,26.03
2022-12-20T22:54:36.247Z,27.23
2022-12-20T22:57:04.533Z,26.10
2022-12-20T22:59:34.722Z,26.77
2022-12-20T23:02:03.000Z,27.27
2022-12-20T23:04:31.192Z,27.30
2022-12-20T23:07:00.695Z,27.07
2022-12-20T23:09:28.955Z,28.47
2022-12-20T23:12:14.604Z,28.90
2022-12-20T23:15:03.880Z,27.30
2022-12-20T23:17:33.632Z,28.20
2022-12-20T23:20:19.129Z,27.07
2022-12-20T23:22:48.631Z,27.23
2022-12-20T23:25:17.447Z,27.50
2022-12-20T23:27:46.619Z,26.60
2022-12-20T23:30:15.706Z,25.57
2022-12-20T23:32:44.628Z,27.53
2022-12-20T23:35:13.135Z,26.20
2022-12-20T23:37:41.365Z,26.47
2022-12-20T23:40:12.028Z,25.47
2022-12-20T23:42:40.175Z,24.43
2022-12-20T23:45:09.245Z,23.93
2022-12-20T23:47:37.424Z,24.67
2022-12-20T23:50:06.326Z,26.47
2022-12-20T23:52:34.388Z,24.57
2022-12-20T23:55:02.448Z,24.53
2022-12-20T23:57:32.239Z,23.37
